Time;durP1;ratioP1;P1;durP2;ratioP2;P2;SDS_P1;SDS_P2;PMS_P1;PMS_P2;Temp;Humidity;BMP_temperature;BMP_pressure;BME280_temperature;BME280_humidity;BME280_pressure;Samples;Min_cycle;Max_cycle;Signal;HPM_P1;HPM_P2
2023/07/17 06:15:07;;;;;;;4.07;2.78;;;;;;;;;;5180769;23;20074;-70
2023/07/17 06:17:33;;;;;;;8.60;2.95;;;;;;;;;;4968143;28;20042;-71
2023/07/17 06:19:59;;;;;;;5.65;3.08;;;;;;;;;;4957084;28;20022;-69
2023/07/17 06:22:25;;;;;;;4.78;3.13;;;;;;;;;;4972764;28;20030;-70
2023/07/17 06:24:52;;;;;;;7.20;3.00;;;;;;;;;;4972917;28;20364;-71
2023/07/17 06:27:18;;;;;;;8.57;3.15;;;;;;;;;;4972852;28;20023;-70
2023/07/17 06:29:44;;;;;;;5.53;2.88;;;;;;;;;;4972300;28;20019;-72
2023/07/17 06:32:11;;;;;;;4.65;3.15;;;;;;;;;;4970388;28;20334;-72
2023/07/17 06:34:37;;;;;;;5.13;3.28;;;;;;;;;;4972017;28;20074;-71
2023/07/17 06:37:05;;;;;;;7.70;2.92;;;;;;;;;;4972472;28;20392;-72
2023/07/17 06:39:32;;;;;;;8.93;3.15;;;;;;;;;;4972960;28;20021;-72
2023/07/17 06:41:59;;;;;;;9.68;3.30;;;;;;;;;;4972866;28;20029;-71
2023/07/17 06:44:25;;;;;;;6.78;3.30;;;;;;;;;;4972645;28;20018;-72
2023/07/17 06:46:52;;;;;;;6.75;3.30;;;;;;;;;;4972267;28;20088;-72
2023/07/17 06:49:18;;;;;;;7.10;3.42;;;;;;;;;;4972765;28;20037;-72
2023/07/17 06:51:44;;;;;;;7.90;3.88;;;;;;;;;;4971434;28;20043;-73
2023/07/17 06:54:11;;;;;;;6.78;3.15;;;;;;;;;;4972881;28;20049;-71
2023/07/17 06:56:37;;;;;;;6.47;3.47;;;;;;;;;;4971607;28;20050;-72
2023/07/17 06:59:03;;;;;;;9.65;3.67;;;;;;;;;;4975217;28;20018;-72
2023/07/17 07:01:30;;;;;;;6.30;3.17;;;;;;;;;;4975571;28;20037;-72
2023/07/17 07:03:56;;;;;;;6.22;3.40;;;;;;;;;;4975966;28;20398;-72
2023/07/17 07:06:22;;;;;;;4.10;3.25;;;;;;;;;;4975901;28;20027;-72
2023/07/17 07:08:48;;;;;;;5.15;3.28;;;;;;;;;;4976041;28;20446;-72
2023/07/17 07:11:15;;;;;;;5.85;3.30;;;;;;;;;;4975815;28;20034;-72
2023/07/17 07:13:42;;;;;;;8.70;3.42;;;;;;;;;;4969439;28;20066;-72
2023/07/17 07:16:09;;;;;;;4.72;3.28;;;;;;;;;;4975143;28;20045;-72
2023/07/17 07:18:35;;;;;;;6.18;3.63;;;;;;;;;;4974471;28;20379;-71
2023/07/17 07:21:01;;;;;;;7.57;3.75;;;;;;;;;;4975877;28;20034;-72
2023/07/17 07:23:28;;;;;;;4.85;3.25;;;;;;;;;;4975384;28;20382;-72
2023/07/17 07:25:54;;;;;;;7.38;3.67;;;;;;;;;;4974876;28;20029;-72
2023/07/17 07:28:21;;;;;;;7.30;3.22;;;;;;;;;;4974441;28;20031;-72
2023/07/17 07:30:48;;;;;;;7.88;3.50;;;;;;;;;;4966555;28;20284;-71
2023/07/17 07:33:15;;;;;;;6.88;3.45;;;;;;;;;;4974965;28;20031;-72
2023/07/17 07:35:44;;;;;;;6.00;3.70;;;;;;;;;;4975261;28;20027;-71
2023/07/17 07:38:10;;;;;;;5.90;3.55;;;;;;;;;;4974579;28;20038;-72
2023/07/17 07:40:37;;;;;;;8.93;3.60;;;;;;;;;;4971511;28;20031;-72
2023/07/17 07:43:03;;;;;;;8.35;3.50;;;;;;;;;;4973625;28;20035;-70
2023/07/17 07:45:29;;;;;;;5.85;3.50;;;;;;;;;;4974914;28;20540;-72
2023/07/17 07:47:56;;;;;;;5.22;3.30;;;;;;;;;;4974907;28;20035;-72
2023/07/17 07:50:23;;;;;;;6.55;3.97;;;;;;;;;;4974692;28;20022;-72
2023/07/17 07:52:50;;;;;;;5.78;3.90;;;;;;;;;;4974719;28;20549;-73
2023/07/17 07:55:16;;;;;;;7.00;3.40;;;;;;;;;;4974591;28;20033;-72
2023/07/17 07:57:42;;;;;;;6.22;3.45;;;;;;;;;;4972482;28;20039;-72
2023/07/17 08:00:09;;;;;;;12.48;3.63;;;;;;;;;;4971863;28;20033;-74
2023/07/17 08:02:35;;;;;;;5.18;3.30;;;;;;;;;;4974536;28;20027;-72
2023/07/17 08:05:03;;;;;;;6.97;3.28;;;;;;;;;;4974276;28;20390;-72
2023/07/17 08:07:29;;;;;;;7.20;3.45;;;;;;;;;;4974646;28;20030;-72
2023/07/17 08:09:55;;;;;;;6.43;3.47;;;;;;;;;;4973759;28;20035;-72
2023/07/17 08:12:22;;;;;;;10.38;3.78;;;;;;;;;;4973887;28;20311;-72
2023/07/17 08:14:49;;;;;;;6.82;3.80;;;;;;;;;;4974623;28;20045;-72
2023/07/17 08:17:15;;;;;;;7.07;3.92;;;;;;;;;;4974098;28;20035;-73
2023/07/17 08:19:42;;;;;;;8.25;3.70;;;;;;;;;;4973442;28;20035;-72
2023/07/17 08:22:08;;;;;;;7.95;3.60;;;;;;;;;;4974245;28;20033;-72
2023/07/17 08:24:34;;;;;;;9.07;4.13;;;;;;;;;;4972687;28;20042;-67
2023/07/17 08:27:01;;;;;;;7.07;3.50;;;;;;;;;;4973984;28;20022;-67
2023/07/17 08:29:27;;;;;;;8.32;3.50;;;;;;;;;;4973517;28;20035;-67
2023/07/17 08:31:54;;;;;;;4.68;3.08;;;;;;;;;;4973320;28;20478;-67
2023/07/17 08:34:23;;;;;;;6.25;3.30;;;;;;;;;;4972827;28;20015;-67
2023/07/17 08:36:49;;;;;;;6.07;3.42;;;;;;;;;;4974240;28;20414;-67
2023/07/17 08:39:16;;;;;;;5.45;3.40;;;;;;;;;;4973576;28;20041;-67
2023/07/17 08:41:50;;;;;;;5.63;3.33;;;;;;;;;;4973846;28;20037;-68
2023/07/17 08:44:17;;;;;;;7.22;3.40;;;;;;;;;;4972858;28;20505;-67
2023/07/17 08:46:46;;;;;;;9.30;3.25;;;;;;;;;;4974029;28;20029;-67
2023/07/17 08:49:14;;;;;;;6.57;3.42;;;;;;;;;;4973672;28;20027;-67
2023/07/17 08:51:40;;;;;;;6.43;3.30;;;;;;;;;;4973708;28;20479;-68
2023/07/17 08:54:07;;;;;;;7.28;3.70;;;;;;;;;;4973992;28;20023;-68
2023/07/17 08:56:35;;;;;;;9.35;3.80;;;;;;;;;;4973093;28;20045;-68
2023/07/17 08:59:01;;;;;;;7.22;3.70;;;;;;;;;;4972610;28;20408;-67
2023/07/17 09:01:28;;;;;;;9.00;3.80;;;;;;;;;;4973698;28;20411;-68
2023/07/17 09:03:54;;;;;;;6.25;3.65;;;;;;;;;;4973494;28;20042;-68
2023/07/17 09:06:24;;;;;;;6.03;3.78;;;;;;;;;;4972617;28;20084;-68
2023/07/17 09:08:52;;;;;;;7.20;3.50;;;;;;;;;;4972288;28;20018;-68
2023/07/17 09:11:19;;;;;;;7.47;3.47;;;;;;;;;;4973564;28;20034;-68
2023/07/17 09:13:46;;;;;;;6.95;3.60;;;;;;;;;;4973411;28;20416;-67
2023/07/17 09:16:14;;;;;;;9.27;3.80;;;;;;;;;;4973071;28;20045;-68
2023/07/17 09:18:40;;;;;;;6.50;3.38;;;;;;;;;;4971603;28;20046;-67
2023/07/17 09:21:07;;;;;;;8.73;3.20;;;;;;;;;;4971681;28;20023;-67
2023/07/17 09:23:40;;;;;;;7.03;3.22;;;;;;;;;;4973294;28;20023;-67
2023/07/17 09:26:06;;;;;;;8.27;3.65;;;;;;;;;;4973423;28;20034;-68
2023/07/17 09:28:45;;;;;;;6.63;3.60;;;;;;;;;;4970574;28;20410;-68
2023/07/17 09:31:12;;;;;;;9.73;3.65;;;;;;;;;;4971321;28;20030;-67
2023/07/17 09:33:38;;;;;;;6.07;3.08;;;;;;;;;;4972835;28;20023;-68
2023/07/17 09:36:04;;;;;;;7.38;3.05;;;;;;;;;;4973212;28;20039;-67
2023/07/17 09:38:35;;;;;;;5.85;3.17;;;;;;;;;;4972271;28;20023;-68
2023/07/17 09:41:16;;;;;;;9.27;3.72;;;;;;;;;;4972074;28;20027;-68
2023/07/17 09:43:43;;;;;;;8.27;3.22;;;;;;;;;;4972972;28;20034;-68
2023/07/17 09:46:09;;;;;;;8.10;3.15;;;;;;;;;;4972863;28;20037;-67
2023/07/17 09:48:36;;;;;;;9.70;3.67;;;;;;;;;;4971935;28;20408;-67
2023/07/17 09:51:03;;;;;;;8.15;3.40;;;;;;;;;;4972653;28;20030;-68
2023/07/17 09:53:30;;;;;;;10.68;3.50;;;;;;;;;;4972327;28;20043;-67
2023/07/17 09:55:57;;;;;;;5.75;3.28;;;;;;;;;;4966470;28;20509;-67
2023/07/17 09:58:24;;;;;;;7.22;3.92;;;;;;;;;;4971137;28;20516;-67
2023/07/17 10:00:51;;;;;;;8.77;3.85;;;;;;;;;;4972110;28;20386;-68
2023/07/17 10:03:20;;;;;;;10.35;3.55;;;;;;;;;;4972299;28;20041;-68
2023/07/17 10:05:48;;;;;;;10.77;3.47;;;;;;;;;;4972512;28;20080;-68
2023/07/17 10:08:15;;;;;;;7.22;3.28;;;;;;;;;;4972217;28;20267;-68
2023/07/17 10:10:42;;;;;;;13.05;3.72;;;;;;;;;;4972171;28;20437;-68
2023/07/17 10:13:09;;;;;;;5.80;3.63;;;;;;;;;;4971747;28;20029;-67
2023/07/17 10:15:36;;;;;;;6.95;3.50;;;;;;;;;;4967149;28;20049;-67
2023/07/17 10:18:03;;;;;;;7.45;3.10;;;;;;;;;;4963660;28;20385;-67
2023/07/17 10:20:33;;;;;;;4.82;3.13;;;;;;;;;;4959830;28;20037;-68
2023/07/17 10:22:59;;;;;;;5.90;3.35;;;;;;;;;;4971205;28;20430;-68
2023/07/17 10:25:27;;;;;;;5.65;3.17;;;;;;;;;;4971729;28;20023;-67
2023/07/17 10:27:59;;;;;;;8.95;3.42;;;;;;;;;;4971450;28;20045;-68
2023/07/17 10:30:33;;;;;;;5.32;3.50;;;;;;;;;;4971701;28;20030;-68
2023/07/17 10:33:05;;;;;;;6.55;3.50;;;;;;;;;;4971925;28;20041;-68
2023/07/17 10:35:33;;;;;;;4.50;3.10;;;;;;;;;;4993947;28;20498;-67
2023/07/17 10:38:09;;;;;;;8.40;3.00;;;;;;;;;;4984836;28;20379;-67
2023/07/17 10:40:35;;;;;;;10.68;3.65;;;;;;;;;;4974629;28;20037;-68
2023/07/17 10:43:11;;;;;;;5.65;3.25;;;;;;;;;;4973159;28;20252;-67
2023/07/17 10:45:38;;;;;;;9.25;4.43;;;;;;;;;;4974350;28;20025;-68
2023/07/17 10:48:08;;;;;;;5.97;3.50;;;;;;;;;;4974901;28;20023;-67
2023/07/17 10:50:34;;;;;;;;;;;;;;;;;;4975418;28;20023;-68
2023/07/17 10:53:05;;;;;;;7.35;3.70;;;;;;;;;;4973731;28;19906;-68
2023/07/17 10:55:32;;;;;;;6.95;3.47;;;;;;;;;;4974616;28;20031;-67
2023/07/17 10:57:58;;;;;;;6.40;3.55;;;;;;;;;;4975132;28;20112;-67
2023/07/17 11:00:25;;;;;;;8.15;3.15;;;;;;;;;;4974714;28;20037;-67
2023/07/17 11:02:51;;;;;;;8.13;3.72;;;;;;;;;;4975047;28;20015;-67
2023/07/17 11:05:18;;;;;;;6.63;3.45;;;;;;;;;;4974664;28;20041;-68
2023/07/17 11:07:44;;;;;;;10.38;3.25;;;;;;;;;;4974577;28;20037;-68
2023/07/17 11:10:11;;;;;;;6.05;3.35;;;;;;;;;;4974762;28;20027;-67
2023/07/17 11:12:38;;;;;;;8.32;3.30;;;;;;;;;;4974797;28;20058;-67
2023/07/17 11:15:12;;;;;;;6.50;2.90;;;;;;;;;;4934864;28;1177307;-68
2023/07/17 11:17:38;;;;;;;7.22;3.13;;;;;;;;;;4975352;28;20039;-67
2023/07/17 11:20:05;;;;;;;6.68;2.97;;;;;;;;;;4976239;28;20031;-67
2023/07/17 11:22:32;;;;;;;6.03;3.60;;;;;;;;;;4975429;28;20018;-67
2023/07/17 11:24:58;;;;;;;4.93;2.80;;;;;;;;;;4975769;28;20023;-67
2023/07/17 11:27:25;;;;;;;4.40;3.38;;;;;;;;;;4975660;28;20097;-68
2023/07/17 11:29:51;;;;;;;5.38;2.85;;;;;;;;;;4975659;28;20027;-67
2023/07/17 11:32:19;;;;;;;5.05;3.30;;;;;;;;;;4975760;28;20023;-67
2023/07/17 11:34:46;;;;;;;6.95;3.33;;;;;;;;;;4975432;28;20045;-67
2023/07/17 11:37:32;;;;;;;4.57;2.92;;;;;;;;;;4972435;28;20034;-67
2023/07/17 11:39:58;;;;;;;9.18;3.60;;;;;;;;;;4975212;28;20027;-67
2023/07/17 11:42:24;;;;;;;5.03;3.03;;;;;;;;;;4975177;28;20368;-67
2023/07/17 11:45:00;;;;;;;4.35;2.97;;;;;;;;;;4973072;28;20023;-67
2023/07/17 11:47:26;;;;;;;6.07;3.10;;;;;;;;;;4974501;28;20034;-67
2023/07/17 11:49:54;;;;;;;6.75;2.92;;;;;;;;;;4974383;28;20037;-67
2023/07/17 11:52:20;;;;;;;6.90;3.10;;;;;;;;;;4971584;28;20033;-67
2023/07/17 11:54:46;;;;;;;8.95;3.00;;;;;;;;;;4972640;28;20035;-68
2023/07/17 11:57:13;;;;;;;5.60;3.40;;;;;;;;;;4972204;28;20027;-67
2023/07/17 11:59:39;;;;;;;5.07;2.30;;;;;;;;;;4971872;28;20027;-67
2023/07/17 12:02:05;;;;;;;5.38;3.08;;;;;;;;;;4972590;28;20031;-67
2023/07/17 12:04:38;;;;;;;6.43;3.22;;;;;;;;;;4973435;28;20467;-68
2023/07/17 12:07:05;;;;;;;5.80;3.00;;;;;;;;;;4973606;28;20035;-68
2023/07/17 12:09:31;;;;;;;9.02;2.97;;;;;;;;;;4970849;28;20027;-68
2023/07/17 12:11:58;;;;;;;4.05;3.08;;;;;;;;;;4970158;28;20476;-68
2023/07/17 12:14:24;;;;;;;7.65;2.92;;;;;;;;;;4968718;28;20057;-67
2023/07/17 12:16:50;;;;;;;4.65;2.90;;;;;;;;;;4968088;28;20030;-68
2023/07/17 12:19:18;;;;;;;6.90;2.85;;;;;;;;;;4969878;28;20033;-67
2023/07/17 12:21:44;;;;;;;8.38;2.75;;;;;;;;;;4971722;28;20037;-67
2023/07/17 12:24:10;;;;;;;4.70;2.85;;;;;;;;;;4968242;28;20019;-68
2023/07/17 12:26:37;;;;;;;8.00;3.05;;;;;;;;;;4967834;28;20410;-68
2023/07/17 12:29:03;;;;;;;7.78;2.80;;;;;;;;;;4968139;28;20029;-68
2023/07/17 12:31:30;;;;;;;10.40;3.00;;;;;;;;;;4968367;28;20039;-66
2023/07/17 12:33:56;;;;;;;5.03;2.80;;;;;;;;;;4967766;28;20027;-67
2023/07/17 12:36:22;;;;;;;9.70;2.70;;;;;;;;;;4966157;28;20050;-66
2023/07/17 12:38:49;;;;;;;3.72;2.80;;;;;;;;;;4966480;28;20025;-68
2023/07/17 12:41:15;;;;;;;3.35;2.55;;;;;;;;;;4968059;28;20033;-67
2023/07/17 12:43:44;;;;;;;6.63;2.65;;;;;;;;;;4967742;28;20035;-68
2023/07/17 12:46:11;;;;;;;4.70;2.70;;;;;;;;;;4972094;28;20374;-65
2023/07/17 12:48:37;;;;;;;8.15;3.30;;;;;;;;;;4973210;28;20038;-67
2023/07/17 12:51:03;;;;;;;7.30;2.50;;;;;;;;;;4973038;28;20027;-67
2023/07/17 12:53:30;;;;;;;4.47;2.72;;;;;;;;;;4971324;28;20015;-67
2023/07/17 12:55:57;;;;;;;5.85;3.08;;;;;;;;;;4968987;28;20096;-67
2023/07/17 12:58:23;;;;;;;8.07;3.10;;;;;;;;;;4966807;28;20037;-68
2023/07/17 13:00:49;;;;;;;4.00;2.90;;;;;;;;;;4969568;28;20491;-67
2023/07/17 13:03:16;;;;;;;5.93;2.60;;;;;;;;;;4969761;28;20027;-68
2023/07/17 13:05:42;;;;;;;7.63;2.95;;;;;;;;;;4973213;28;20029;-67
2023/07/17 13:08:08;;;;;;;4.28;2.70;;;;;;;;;;4973063;28;20037;-67
2023/07/17 13:10:34;;;;;;;8.35;2.80;;;;;;;;;;4965344;28;20034;-67
2023/07/17 13:13:01;;;;;;;7.10;2.47;;;;;;;;;;4965839;28;20027;-67
2023/07/17 13:15:28;;;;;;;7.38;3.10;;;;;;;;;;4962224;28;20059;-67
2023/07/17 13:17:54;;;;;;;4.50;2.45;;;;;;;;;;4967321;28;20031;-66
2023/07/17 13:20:20;;;;;;;4.28;2.58;;;;;;;;;;4972768;28;20018;-67
2023/07/17 13:22:47;;;;;;;4.20;2.55;;;;;;;;;;4970481;28;20026;-68
2023/07/17 13:25:13;;;;;;;6.50;2.95;;;;;;;;;;4970235;28;20492;-67
2023/07/17 13:27:39;;;;;;;4.15;2.67;;;;;;;;;;4969401;28;20068;-68
2023/07/17 13:30:07;;;;;;;8.65;3.17;;;;;;;;;;4962419;28;20019;-68
2023/07/17 13:32:33;;;;;;;5.00;2.80;;;;;;;;;;4968255;28;20764;-68
2023/07/17 13:34:59;;;;;;;5.63;3.00;;;;;;;;;;4971095;28;20098;-68
2023/07/17 13:37:25;;;;;;;6.32;2.63;;;;;;;;;;4970755;28;20039;-68
2023/07/17 13:39:52;;;;;;;4.85;2.80;;;;;;;;;;4970861;28;20033;-68
2023/07/17 13:42:18;;;;;;;3.20;2.88;;;;;;;;;;4972249;28;20031;-68
2023/07/17 13:44:44;;;;;;;8.05;3.00;;;;;;;;;;4972506;28;20027;-67
2023/07/17 13:47:11;;;;;;;7.32;2.95;;;;;;;;;;4971349;28;20080;-68
2023/07/17 13:49:37;;;;;;;7.10;2.80;;;;;;;;;;4971984;28;20097;-68
2023/07/17 13:52:03;;;;;;;5.63;3.05;;;;;;;;;;4972494;28;20015;-67
2023/07/17 13:54:30;;;;;;;7.75;2.80;;;;;;;;;;4971811;28;20053;-66
2023/07/17 13:56:56;;;;;;;5.45;2.78;;;;;;;;;;4971949;28;20041;-68
2023/07/17 13:59:22;;;;;;;6.35;2.80;;;;;;;;;;4971841;28;20046;-68
2023/07/17 14:01:48;;;;;;;4.03;2.50;;;;;;;;;;4959309;28;20037;-67
2023/07/17 14:04:15;;;;;;;6.00;3.40;;;;;;;;;;4971393;28;20027;-67
2023/07/17 14:06:41;;;;;;;5.20;3.10;;;;;;;;;;4969180;28;20499;-67
2023/07/17 14:09:08;;;;;;;3.95;2.40;;;;;;;;;;4969149;28;20495;-67
2023/07/17 14:11:34;;;;;;;7.22;2.63;;;;;;;;;;4968174;28;20024;-68
2023/07/17 14:14:01;;;;;;;5.38;2.75;;;;;;;;;;4969302;28;20455;-67
2023/07/17 14:16:27;;;;;;;5.95;2.80;;;;;;;;;;4966922;28;20035;-67
2023/07/17 14:18:53;;;;;;;4.88;2.88;;;;;;;;;;4965147;28;20030;-67
2023/07/17 14:21:20;;;;;;;4.85;2.22;;;;;;;;;;4969473;28;20034;-67
2023/07/17 14:23:47;;;;;;;8.30;3.22;;;;;;;;;;4964853;28;20027;-67
2023/07/17 14:26:14;;;;;;;6.07;2.83;;;;;;;;;;4964273;28;20039;-67
2023/07/17 14:28:40;;;;;;;9.25;2.80;;;;;;;;;;4964422;28;20506;-67
2023/07/17 14:31:07;;;;;;;6.53;3.03;;;;;;;;;;4971386;28;20029;-67
2023/07/17 14:33:33;;;;;;;4.20;2.63;;;;;;;;;;4971752;28;20533;-67
2023/07/17 14:35:59;;;;;;;4.38;2.58;;;;;;;;;;4971615;28;20068;-67
2023/07/17 14:38:26;;;;;;;5.53;2.83;;;;;;;;;;4970011;28;20018;-67
2023/07/17 14:40:52;;;;;;;3.55;2.80;;;;;;;;;;4969461;28;20460;-67
2023/07/17 14:43:19;;;;;;;4.55;2.78;;;;;;;;;;4971364;28;20022;-68
2023/07/17 14:45:45;;;;;;;5.72;2.50;;;;;;;;;;4970687;28;20398;-67
2023/07/17 14:48:11;;;;;;;6.68;2.90;;;;;;;;;;4970438;28;20025;-67
2023/07/17 14:50:38;;;;;;;4.03;2.95;;;;;;;;;;4971175;28;20023;-67
2023/07/17 14:53:04;;;;;;;6.38;3.03;;;;;;;;;;4970949;28;20023;-67
2023/07/17 14:55:31;;;;;;;6.05;2.55;;;;;;;;;;4971308;28;20039;-66
2023/07/17 14:57:57;;;;;;;5.25;2.95;;;;;;;;;;4971763;28;20039;-66
2023/07/17 15:00:24;;;;;;;4.35;2.88;;;;;;;;;;4970250;28;20491;-68
2023/07/17 15:02:50;;;;;;;9.20;3.55;;;;;;;;;;4971020;28;20034;-67
2023/07/17 15:05:17;;;;;;;4.95;2.70;;;;;;;;;;4971164;28;20023;-66
2023/07/17 15:07:43;;;;;;;4.28;3.00;;;;;;;;;;4971804;28;20031;-67
2023/07/17 15:10:09;;;;;;;7.35;2.90;;;;;;;;;;4971753;28;20597;-67
2023/07/17 15:12:36;;;;;;;5.15;2.70;;;;;;;;;;4971606;28;20042;-65
2023/07/17 15:15:03;;;;;;;4.65;2.60;;;;;;;;;;4966975;28;20055;-67
2023/07/17 15:17:29;;;;;;;4.15;2.60;;;;;;;;;;4971144;28;20428;-67
2023/07/17 15:19:56;;;;;;;5.13;2.80;;;;;;;;;;4974866;28;20054;-67
2023/07/17 15:22:22;;;;;;;6.10;3.28;;;;;;;;;;4974488;28;20033;-66
2023/07/17 15:24:48;;;;;;;6.80;2.90;;;;;;;;;;4975559;28;20442;-67
2023/07/17 15:27:15;;;;;;;4.88;2.92;;;;;;;;;;4974421;28;20465;-72
2023/07/17 15:29:41;;;;;;;14.25;3.22;;;;;;;;;;4975802;28;20030;-72
2023/07/17 15:32:07;;;;;;;8.32;3.08;;;;;;;;;;4975939;28;20023;-72
2023/07/17 15:34:34;;;;;;;8.88;3.15;;;;;;;;;;4972896;28;20027;-73
2023/07/17 15:37:00;;;;;;;9.00;3.10;;;;;;;;;;4975176;28;20042;-73
2023/07/17 15:39:26;;;;;;;7.40;3.10;;;;;;;;;;4975829;28;20027;-73
2023/07/17 15:41:53;;;;;;;6.35;2.70;;;;;;;;;;4990734;28;20479;-73
2023/07/17 15:44:19;;;;;;;5.53;3.17;;;;;;;;;;4975752;28;20030;-73
2023/07/17 15:46:45;;;;;;;9.85;3.25;;;;;;;;;;4975532;28;20035;-73
2023/07/17 15:49:11;;;;;;;5.07;2.83;;;;;;;;;;4975741;28;20025;-73
2023/07/17 15:51:38;;;;;;;7.80;3.20;;;;;;;;;;4975546;28;20386;-73
2023/07/17 15:54:04;;;;;;;5.05;2.67;;;;;;;;;;4975413;28;20033;-73
2023/07/17 15:56:30;;;;;;;5.22;2.67;;;;;;;;;;4975105;28;20030;-73
2023/07/17 15:58:58;;;;;;;4.10;2.72;;;;;;;;;;4975396;28;20022;-73
2023/07/17 16:01:25;;;;;;;5.45;2.75;;;;;;;;;;4975594;28;20033;-73
2023/07/17 16:03:51;;;;;;;6.80;2.85;;;;;;;;;;4975444;28;20034;-73
2023/07/17 16:06:17;;;;;;;5.35;2.75;;;;;;;;;;4975689;28;20018;-73
2023/07/17 16:08:43;;;;;;;4.60;2.90;;;;;;;;;;4975212;28;20019;-73
2023/07/17 16:11:10;;;;;;;5.68;3.20;;;;;;;;;;4974601;28;20027;-74
2023/07/17 16:13:36;;;;;;;6.38;2.80;;;;;;;;;;4974520;28;20041;-74
2023/07/17 16:16:06;;;;;;;9.35;3.00;;;;;;;;;;4975243;28;20405;-73
2023/07/17 16:18:32;;;;;;;6.65;3.00;;;;;;;;;;4975439;28;20038;-73
2023/07/17 16:20:59;;;;;;;4.68;2.78;;;;;;;;;;4974370;28;20026;-73
2023/07/17 16:23:26;;;;;;;6.60;2.92;;;;;;;;;;4975278;28;20066;-73
2023/07/17 16:25:52;;;;;;;4.65;2.90;;;;;;;;;;4975014;28;20502;-73
2023/07/17 16:28:18;;;;;;;6.90;2.92;;;;;;;;;;4975026;28;20505;-73
2023/07/17 16:30:45;;;;;;;10.40;2.67;;;;;;;;;;4974447;28;20483;-73
2023/07/17 16:33:12;;;;;;;4.57;2.38;;;;;;;;;;4975195;28;20483;-72
2023/07/17 16:35:38;;;;;;;5.75;2.95;;;;;;;;;;4974980;28;20493;-73
2023/07/17 16:38:04;;;;;;;5.80;3.05;;;;;;;;;;4974851;28;20031;-74
2023/07/17 16:40:31;;;;;;;5.20;2.78;;;;;;;;;;4974634;28;20037;-73
2023/07/17 16:42:57;;;;;;;7.78;2.97;;;;;;;;;;4974676;28;20034;-73
2023/07/17 16:45:23;;;;;;;6.78;2.95;;;;;;;;;;4974821;28;20391;-73
2023/07/17 16:47:49;;;;;;;6.72;3.28;;;;;;;;;;4973774;28;20033;-73
2023/07/17 16:50:16;;;;;;;6.30;2.95;;;;;;;;;;4974818;28;20030;-73
2023/07/17 16:52:42;;;;;;;6.70;2.83;;;;;;;;;;4974717;28;20027;-73
2023/07/17 16:55:09;;;;;;;4.38;2.72;;;;;;;;;;4974818;28;20089;-73
2023/07/17 16:57:35;;;;;;;5.07;2.83;;;;;;;;;;4974342;28;20418;-73
2023/07/17 17:00:02;;;;;;;6.22;3.38;;;;;;;;;;4974591;28;20018;-73
2023/07/17 17:02:28;;;;;;;7.60;3.03;;;;;;;;;;4974385;28;20406;-72
2023/07/17 17:04:54;;;;;;;6.78;3.35;;;;;;;;;;4974520;28;20054;-73
2023/07/17 17:07:21;;;;;;;8.43;3.15;;;;;;;;;;4974594;28;20030;-73
2023/07/17 17:09:47;;;;;;;4.57;2.83;;;;;;;;;;4973854;28;20023;-73
2023/07/17 17:12:13;;;;;;;11.85;2.97;;;;;;;;;;4974727;28;20039;-73
2023/07/17 17:14:40;;;;;;;8.32;3.08;;;;;;;;;;4974214;28;20046;-73
2023/07/17 17:17:06;;;;;;;4.35;3.00;;;;;;;;;;4974101;28;20037;-73
2023/07/17 17:19:32;;;;;;;5.22;2.95;;;;;;;;;;4974167;28;20714;-74
2023/07/17 17:21:59;;;;;;;7.18;2.72;;;;;;;;;;4974096;28;20038;-73
2023/07/17 17:24:25;;;;;;;11.18;3.05;;;;;;;;;;4973929;28;20505;-73
2023/07/17 17:26:51;;;;;;;4.82;2.88;;;;;;;;;;4974589;28;20041;-73
2023/07/17 17:29:18;;;;;;;6.53;3.00;;;;;;;;;;4974138;28;20471;-73
2023/07/17 17:31:44;;;;;;;8.45;3.22;;;;;;;;;;4974360;28;20034;-73
2023/07/17 17:34:11;;;;;;;5.18;2.80;;;;;;;;;;4973855;28;20390;-73
2023/07/17 17:36:37;;;;;;;8.30;3.05;;;;;;;;;;4974131;28;20038;-73
2023/07/17 17:39:04;;;;;;;5.80;3.17;;;;;;;;;;4973657;28;20023;-73
2023/07/17 17:41:32;;;;;;;5.20;2.90;;;;;;;;;;4973623;28;20033;-73
2023/07/17 17:43:59;;;;;;;5.03;2.90;;;;;;;;;;4973793;28;20015;-73
2023/07/17 17:46:25;;;;;;;5.00;2.67;;;;;;;;;;4973764;28;20383;-73
2023/07/17 17:48:51;;;;;;;5.72;2.40;;;;;;;;;;4973832;28;20397;-73
2023/07/17 17:51:19;;;;;;;4.72;2.60;;;;;;;;;;4974132;28;20029;-73
2023/07/17 17:53:45;;;;;;;7.75;3.10;;;;;;;;;;4972133;28;20045;-73
2023/07/17 17:56:11;;;;;;;4.43;2.70;;;;;;;;;;4974046;28;20033;-73
2023/07/17 17:58:38;;;;;;;5.90;3.17;;;;;;;;;;4973720;28;20027;-73
2023/07/17 18:01:04;;;;;;;7.05;2.65;;;;;;;;;;4973221;28;20492;-73
2023/07/17 18:03:30;;;;;;;6.10;2.60;;;;;;;;;;4973927;28;20042;-74
2023/07/17 18:05:56;;;;;;;5.63;2.65;;;;;;;;;;4973426;28;20019;-73
2023/07/17 18:08:23;;;;;;;7.03;2.92;;;;;;;;;;4973465;28;20041;-73
2023/07/17 18:10:49;;;;;;;6.55;3.05;;;;;;;;;;4973803;28;20037;-73
2023/07/17 18:13:15;;;;;;;15.05;3.40;;;;;;;;;;4973081;28;20049;-73
2023/07/17 18:15:42;;;;;;;9.02;3.03;;;;;;;;;;4973501;28;20034;-73
2023/07/17 18:18:08;;;;;;;6.85;3.00;;;;;;;;;;4973361;28;20035;-73
2023/07/17 18:20:34;;;;;;;4.60;2.58;;;;;;;;;;4972114;28;20039;-73
2023/07/17 18:23:01;;;;;;;7.78;3.13;;;;;;;;;;4973428;28;20033;-73
2023/07/17 18:25:27;;;;;;;4.85;2.83;;;;;;;;;;4973466;28;20364;-73
2023/07/17 18:27:53;;;;;;;6.85;3.30;;;;;;;;;;4972282;28;20041;-74
2023/07/17 18:30:20;;;;;;;5.85;3.13;;;;;;;;;;4973164;28;20045;-73
2023/07/17 18:32:46;;;;;;;7.72;2.92;;;;;;;;;;4973430;28;20027;-73
2023/07/17 18:35:12;;;;;;;6.30;2.80;;;;;;;;;;4973431;28;20378;-73
2023/07/17 18:37:39;;;;;;;5.15;2.80;;;;;;;;;;4972790;28;20045;-73
2023/07/17 18:40:08;;;;;;;5.80;3.03;;;;;;;;;;4973215;28;20545;-73
2023/07/17 18:42:34;;;;;;;5.60;2.80;;;;;;;;;;4973097;28;20023;-73
2023/07/17 18:45:01;;;;;;;10.65;3.30;;;;;;;;;;4973441;28;20033;-72
2023/07/17 18:47:27;;;;;;;4.85;2.92;;;;;;;;;;4973566;28;20038;-73
2023/07/17 18:49:53;;;;;;;5.82;3.15;;;;;;;;;;4973223;28;20030;-73
2023/07/17 18:52:21;;;;;;;8.05;3.03;;;;;;;;;;4972702;28;20626;-73
2023/07/17 18:54:48;;;;;;;7.78;3.15;;;;;;;;;;4976104;28;20027;-73
2023/07/17 18:57:14;;;;;;;5.20;3.10;;;;;;;;;;4976763;28;20039;-74
2023/07/17 18:59:41;;;;;;;4.85;3.22;;;;;;;;;;4976814;28;20022;-73
2023/07/17 19:02:07;;;;;;;5.03;3.30;;;;;;;;;;4976726;28;20030;-73
2023/07/17 19:04:33;;;;;;;5.80;3.30;;;;;;;;;;4976605;28;20026;-74
2023/07/17 19:07:00;;;;;;;8.60;3.30;;;;;;;;;;4976696;28;20058;-73
2023/07/17 19:09:26;;;;;;;8.07;3.58;;;;;;;;;;4976785;28;20471;-73
2023/07/17 19:11:53;;;;;;;6.50;2.83;;;;;;;;;;4976569;28;20029;-73
2023/07/17 19:14:19;;;;;;;8.80;3.38;;;;;;;;;;4976357;28;20093;-73
2023/07/17 19:16:46;;;;;;;5.35;3.30;;;;;;;;;;4976604;28;20077;-73
2023/07/17 19:19:12;;;;;;;8.55;3.10;;;;;;;;;;4976127;28;20018;-73
2023/07/17 19:21:43;;;;;;;6.47;3.20;;;;;;;;;;4976753;28;20027;-73
2023/07/17 19:24:09;;;;;;;7.65;3.38;;;;;;;;;;4976477;28;20514;-73
2023/07/17 19:26:36;;;;;;;4.32;2.90;;;;;;;;;;4976494;28;20023;-73
2023/07/17 19:29:03;;;;;;;5.90;3.10;;;;;;;;;;4975079;28;20470;-73
2023/07/17 19:31:29;;;;;;;4.13;3.00;;;;;;;;;;4976437;28;20023;-73
2023/07/17 19:33:58;;;;;;;4.85;2.78;;;;;;;;;;4975779;28;20387;-73
2023/07/17 19:36:24;;;;;;;6.05;3.20;;;;;;;;;;4976219;28;20491;-73
2023/07/17 19:38:51;;;;;;;6.35;3.22;;;;;;;;;;4976153;28;20372;-73
2023/07/17 19:41:18;;;;;;;6.18;3.13;;;;;;;;;;4990962;28;20030;-73
2023/07/17 19:43:44;;;;;;;6.43;2.80;;;;;;;;;;4976164;28;20030;-73
2023/07/17 19:46:11;;;;;;;6.57;3.20;;;;;;;;;;4975128;28;20045;-73
2023/07/17 19:48:40;;;;;;;8.20;3.00;;;;;;;;;;4975838;28;20528;-73
2023/07/17 19:51:07;;;;;;;5.25;3.00;;;;;;;;;;4975914;28;20022;-73
2023/07/17 19:53:33;;;;;;;6.50;3.10;;;;;;;;;;4975724;28;20026;-74
2023/07/17 19:56:01;;;;;;;4.38;3.15;;;;;;;;;;4975984;28;20027;-73
2023/07/17 19:58:28;;;;;;;7.03;3.72;;;;;;;;;;4975939;28;20483;-72
2023/07/17 20:00:57;;;;;;;6.78;3.10;;;;;;;;;;4975977;28;20039;-73
2023/07/17 20:03:24;;;;;;;6.10;3.17;;;;;;;;;;4975386;28;20022;-73
2023/07/17 20:05:51;;;;;;;8.20;3.15;;;;;;;;;;4974434;28;20483;-73
2023/07/17 20:08:17;;;;;;;9.02;2.90;;;;;;;;;;4975883;28;20023;-73
2023/07/17 20:10:44;;;;;;;7.95;3.30;;;;;;;;;;4975603;28;20015;-73
2023/07/17 20:13:10;;;;;;;5.00;2.97;;;;;;;;;;4975655;28;20038;-73
2023/07/17 20:15:36;;;;;;;7.95;3.35;;;;;;;;;;4975191;28;20047;-73
2023/07/17 20:18:03;;;;;;;7.43;3.08;;;;;;;;;;4974958;28;20034;-73
2023/07/17 20:20:29;;;;;;;8.40;3.20;;;;;;;;;;4975653;28;20030;-73
2023/07/17 20:22:55;;;;;;;8.80;3.47;;;;;;;;;;4975305;28;20035;-74
2023/07/17 20:25:22;;;;;;;5.72;2.97;;;;;;;;;;4975290;28;20073;-73
2023/07/17 20:27:48;;;;;;;7.20;3.50;;;;;;;;;;4975374;28;20387;-73
2023/07/17 20:30:16;;;;;;;7.40;3.30;;;;;;;;;;4975078;28;20023;-73
2023/07/17 20:32:42;;;;;;;5.35;3.30;;;;;;;;;;4974693;28;20026;-73
2023/07/17 20:35:09;;;;;;;5.95;3.42;;;;;;;;;;4975042;28;20023;-73
2023/07/17 20:37:36;;;;;;;9.05;3.83;;;;;;;;;;4975126;28;20031;-73
2023/07/17 20:40:04;;;;;;;7.78;4.22;;;;;;;;;;4974989;28;20023;-74
2023/07/17 20:42:49;;;;;;;10.73;4.35;;;;;;;;;;4974875;28;20041;-73
2023/07/17 20:45:29;;;;;;;7.82;4.40;;;;;;;;;;4974606;28;20023;-73
2023/07/17 20:47:56;;;;;;;9.53;4.73;;;;;;;;;;4974633;28;20023;-73
2023/07/17 20:50:23;;;;;;;7.53;3.80;;;;;;;;;;4973465;28;20769;-73
2023/07/17 20:52:49;;;;;;;9.75;4.00;;;;;;;;;;4975108;28;20038;-72
2023/07/17 20:55:16;;;;;;;7.40;3.72;;;;;;;;;;4973404;28;20037;-73